createdAt,value
2023-05-01T00:00:55.078Z,0.74
2023-05-01T00:06:02.137Z,0.68
2023-05-01T00:11:06.245Z,0.64
2023-05-01T00:16:10.283Z,0.58
2023-05-01T00:21:13.335Z,0.52
2023-05-01T00:26:16.340Z,0.47
2023-05-01T00:31:20.070Z,0.43
2023-05-01T00:36:23.162Z,0.41
2023-05-01T00:41:26.479Z,0.40
2023-05-01T00:46:30.641Z,0.37
2023-05-01T00:51:34.322Z,0.36
2023-05-01T00:56:37.639Z,0.37
2023-05-01T01:01:44.537Z,0.38
2023-05-01T01:06:53.162Z,0.37
2023-05-01T01:12:28.731Z,0.40
2023-05-01T01:17:46.999Z,0.45
2023-05-01T01:22:53.397Z,0.44
2023-05-01T01:28:05.700Z,0.41
2023-05-01T01:33:25.590Z,0.37
2023-05-01T01:38:48.872Z,0.33
2023-05-01T01:44:10.014Z,0.29
2023-05-01T01:49:21.048Z,0.25
2023-05-01T01:54:29.726Z,0.20
2023-05-01T01:59:34.583Z,0.16
2023-05-01T02:04:39.619Z,0.14
2023-05-01T02:09:44.779Z,0.15
2023-05-01T02:14:48.604Z,0.16
2023-05-01T02:19:53.557Z,0.14
2023-05-01T02:24:57.578Z,0.11
2023-05-01T02:30:00.584Z,0.08
2023-05-01T02:35:04.099Z,0.07
2023-05-01T02:40:07.925Z,0.10
2023-05-01T02:45:18.207Z,0.10
2023-05-01T02:50:22.501Z,0.05
2023-05-01T02:55:26.660Z,0.00
2023-05-01T03:00:30.272Z,-0.04
2023-05-01T03:05:33.797Z,-0.09
2023-05-01T03:10:36.999Z,-0.11
2023-05-01T03:15:40.006Z,-0.12
2023-05-01T03:20:51.715Z,-0.12
2023-05-01T03:25:55.014Z,-0.05
2023-05-01T03:30:58.123Z,0.04
2023-05-01T03:36:05.758Z,0.14
2023-05-01T03:41:09.041Z,0.22
2023-05-01T03:46:12.109Z,0.32
2023-05-01T03:51:17.512Z,0.52
2023-05-01T03:56:20.612Z,1.21
2023-05-01T04:01:23.614Z,2.53
2023-05-01T04:06:27.498Z,4.10
2023-05-01T04:11:30.863Z,5.69
2023-05-01T04:16:34.127Z,7.14
2023-05-01T04:21:37.575Z,8.63
2023-05-01T04:26:40.784Z,10.00
2023-05-01T04:31:43.935Z,11.32
2023-05-01T04:36:47.294Z,12.45
2023-05-01T04:41:50.813Z,13.37
2023-05-01T04:46:54.072Z,14.21
2023-05-01T04:51:57.326Z,15.12
2023-05-01T04:57:01.665Z,16.02
2023-05-01T05:02:05.022Z,16.77
2023-05-01T05:07:09.870Z,17.45
2023-05-01T05:12:14.872Z,18.15
2023-05-01T05:17:18.183Z,18.58
2023-05-01T05:22:21.594Z,19.18
2023-05-01T05:27:24.494Z,19.85
2023-05-01T05:32:27.652Z,20.62
2023-05-01T05:37:30.720Z,21.52
2023-05-01T05:42:34.435Z,22.29
2023-05-01T05:47:37.783Z,22.87
2023-05-01T05:52:41.009Z,23.65
2023-05-01T05:57:44.160Z,24.18
2023-05-01T06:02:47.361Z,24.76
2023-05-01T06:07:51.816Z,25.34
2023-05-01T06:12:59.485Z,25.92
2023-05-01T06:18:17.959Z,26.59
2023-05-01T06:23:23.108Z,27.06
2023-05-01T06:28:26.305Z,27.21
2023-05-01T06:33:29.552Z,27.37
2023-05-01T06:38:35.524Z,27.90
2023-05-01T06:43:38.831Z,28.21
2023-05-01T06:48:41.833Z,28.61
2023-05-01T06:53:45.559Z,28.87
2023-05-01T06:58:48.974Z,29.07
2023-05-01T07:03:52.813Z,29.38
2023-05-01T07:08:56.008Z,30.21
2023-05-01T07:13:59.529Z,30.70
2023-05-01T07:19:02.521Z,30.63
2023-05-01T07:24:06.129Z,30.78
2023-05-01T07:29:09.244Z,30.57
2023-05-01T07:34:12.354Z,30.91
2023-05-01T07:39:15.762Z,31.22
2023-05-01T07:44:19.173Z,31.60
2023-05-01T07:49:22.387Z,31.89
2023-05-01T07:54:25.492Z,32.14
2023-05-01T07:59:29.104Z,32.26
2023-05-01T08:04:32.662Z,32.28
2023-05-01T08:09:36.288Z,31.80
2023-05-01T08:14:39.453Z,31.75
2023-05-01T08:19:42.553Z,31.62
2023-05-01T08:24:46.681Z,31.17
2023-05-01T08:29:50.112Z,31.32
2023-05-01T08:34:54.031Z,31.66
2023-05-01T08:39:58.915Z,31.78
2023-05-01T08:45:05.234Z,32.20
2023-05-01T08:50:14.444Z,32.62
2023-05-01T08:55:19.752Z,32.94
2023-05-01T09:00:23.443Z,33.01
2023-05-01T09:05:27.395Z,33.20
2023-05-01T09:10:32.956Z,32.82
2023-05-01T09:15:36.795Z,31.92
2023-05-01T09:20:41.113Z,31.64
2023-05-01T09:25:46.388Z,31.79
2023-05-01T09:30:50.195Z,31.88
2023-05-01T09:35:54.746Z,31.44
2023-05-01T09:41:04.114Z,31.76
2023-05-01T09:46:09.877Z,32.32
2023-05-01T09:51:23.412Z,32.50
2023-05-01T09:56:27.043Z,32.50
2023-05-01T10:01:40.120Z,31.53
2023-05-01T10:06:43.476Z,30.17
2023-05-01T10:11:49.781Z,27.92
2023-05-01T10:16:53.679Z,25.49
2023-05-01T10:21:56.939Z,23.28
2023-05-01T10:27:01.542Z,21.68
2023-05-01T10:32:05.145Z,20.41
2023-05-01T10:37:28.937Z,19.71
2023-05-01T10:42:32.462Z,19.41
2023-05-01T10:47:38.414Z,19.15
2023-05-01T10:53:02.253Z,18.36
2023-05-01T10:58:05.852Z,18.17
2023-05-01T11:03:23.398Z,18.28
2023-05-01T11:08:33.365Z,18.14
2023-05-01T11:13:55.927Z,18.02
2023-05-01T11:18:59.216Z,18.08
2023-05-01T11:24:06.444Z,17.97
2023-05-01T11:29:10.967Z,17.70
2023-05-01T11:34:14.082Z,17.38
2023-05-01T11:39:18.284Z,17.36
2023-05-01T11:44:22.026Z,17.60
2023-05-01T11:49:29.023Z,17.46
2023-05-01T11:54:47.485Z,17.62
2023-05-01T11:59:50.594Z,17.77
2023-05-01T12:04:54.343Z,17.85
2023-05-01T12:09:57.657Z,17.81
2023-05-01T12:15:00.989Z,17.77
2023-05-01T12:20:05.764Z,17.79
2023-05-01T12:25:09.869Z,17.95
2023-05-01T12:30:13.241Z,18.09
2023-05-01T12:35:16.948Z,18.22
2023-05-01T12:40:20.144Z,18.23
2023-05-01T12:45:23.657Z,18.14
2023-05-01T12:50:26.969Z,18.13
2023-05-01T12:55:30.488Z,18.18
2023-05-01T13:00:42.197Z,18.20
2023-05-01T13:05:58.593Z,18.23
2023-05-01T13:11:04.172Z,18.27
2023-05-01T13:16:14.223Z,18.26
2023-05-01T13:21:19.701Z,18.29
2023-05-01T13:26:33.773Z,18.34
2023-05-01T13:31:37.030Z,18.34
2023-05-01T13:36:40.591Z,18.29
2023-05-01T13:41:43.588Z,18.21
2023-05-01T13:46:47.415Z,18.08
2023-05-01T13:51:51.356Z,18.07
2023-05-01T13:56:54.848Z,18.23
2023-05-01T14:01:57.791Z,18.39
2023-05-01T14:07:01.686Z,18.52
2023-05-01T14:12:05.095Z,18.55
2023-05-01T14:17:08.341Z,18.51
2023-05-01T14:22:12.229Z,18.41
2023-05-01T14:27:15.500Z,18.31
2023-05-01T14:32:18.634Z,18.31
2023-05-01T14:37:23.082Z,18.33
2023-05-01T14:42:26.591Z,18.38
2023-05-01T14:47:29.631Z,18.42
2023-05-01T14:52:33.014Z,18.35
2023-05-01T14:57:36.437Z,18.24
2023-05-01T15:02:39.657Z,18.22
2023-05-01T15:07:42.947Z,18.24
2023-05-01T15:12:46.727Z,18.25
2023-05-01T15:17:50.588Z,18.23
2023-05-01T15:22:54.209Z,18.20
2023-05-01T15:27:57.830Z,18.11
2023-05-01T15:33:01.862Z,18.02
2023-05-01T15:38:05.633Z,17.85
2023-05-01T15:43:08.789Z,17.68
2023-05-01T15:48:12.414Z,17.59
2023-05-01T15:53:17.353Z,17.57
2023-05-01T15:58:23.216Z,17.54
2023-05-01T16:03:27.585Z,17.49
2023-05-01T16:08:32.495Z,17.43
2023-05-01T16:13:42.165Z,17.38
2023-05-01T16:18:45.809Z,17.30
2023-05-01T16:23:49.284Z,17.21
2023-05-01T16:28:53.532Z,17.08
2023-05-01T16:33:57.066Z,16.90
2023-05-01T16:39:01.479Z,16.73
2023-05-01T16:44:04.987Z,16.64
2023-05-01T16:49:10.653Z,16.61
2023-05-01T16:54:13.767Z,16.53
2023-05-01T16:59:17.288Z,16.45
2023-05-01T17:04:20.658Z,16.35
2023-05-01T17:09:24.403Z,16.25
2023-05-01T17:14:29.143Z,16.12
2023-05-01T17:19:32.918Z,15.96
2023-05-01T17:24:36.908Z,15.76
2023-05-01T17:29:41.847Z,15.52
2023-05-01T17:34:45.489Z,15.28
2023-05-01T17:39:49.511Z,15.03
2023-05-01T17:44:53.319Z,14.77
2023-05-01T17:49:56.561Z,14.50
2023-05-01T17:55:00.665Z,14.27
2023-05-01T18:00:05.609Z,14.05
2023-05-01T18:05:11.934Z,13.83
2023-05-01T18:10:16.389Z,13.65
2023-05-01T18:15:22.745Z,13.49
2023-05-01T18:20:26.530Z,13.34
2023-05-01T18:25:29.935Z,13.19
2023-05-01T18:30:33.353Z,13.08
2023-05-01T18:35:40.081Z,12.99
2023-05-01T18:40:43.903Z,12.90
2023-05-01T18:45:47.079Z,12.78
2023-05-01T18:51:06.795Z,12.67
2023-05-01T18:56:11.507Z,12.60
2023-05-01T19:01:24.071Z,12.55
2023-05-01T19:06:38.038Z,12.44
2023-05-01T19:11:42.523Z,12.34
2023-05-01T19:16:46.109Z,12.25
2023-05-01T19:21:51.609Z,12.14
2023-05-01T19:26:56.851Z,12.02
2023-05-01T19:32:02.284Z,11.88
2023-05-01T19:37:07.991Z,11.70
2023-05-01T19:42:13.612Z,11.51
2023-05-01T19:47:20.453Z,11.34
2023-05-01T19:52:34.140Z,11.21
2023-05-01T19:57:38.335Z,11.09
2023-05-01T20:02:42.666Z,11.01
2023-05-01T20:07:48.849Z,10.95
2023-05-01T20:12:53.177Z,10.90
2023-05-01T20:17:56.618Z,10.81
2023-05-01T20:23:14.042Z,10.70
2023-05-01T20:28:18.172Z,10.61
2023-05-01T20:33:21.296Z,10.50
2023-05-01T20:38:24.696Z,10.34
2023-05-01T20:43:28.309Z,10.22
2023-05-01T20:48:33.109Z,10.14
2023-05-01T20:53:36.766Z,10.10
2023-05-01T20:58:39.973Z,10.13
2023-05-01T21:03:42.996Z,10.24
2023-05-01T21:08:46.697Z,10.32
2023-05-01T21:13:51.847Z,10.34
2023-05-01T21:18:55.158Z,10.36
2023-05-01T21:23:58.265Z,10.39
2023-05-01T21:29:01.884Z,10.39
2023-05-01T21:34:05.198Z,10.37
2023-05-01T21:39:08.610Z,10.33
2023-05-01T21:44:11.817Z,10.31
2023-05-01T21:49:18.764Z,10.29
2023-05-01T21:54:21.845Z,10.26
2023-05-01T21:59:26.353Z,10.24
2023-05-01T22:04:29.459Z,10.22
2023-05-01T22:09:33.218Z,10.22
2023-05-01T22:14:47.135Z,10.22
2023-05-01T22:19:51.894Z,10.19
2023-05-01T22:24:54.892Z,10.12
2023-05-01T22:29:58.574Z,10.04
2023-05-01T22:35:01.818Z,9.96
2023-05-01T22:40:06.077Z,9.89
2023-05-01T22:45:10.529Z,9.80
2023-05-01T22:50:13.605Z,9.71
2023-05-01T22:55:16.807Z,9.67
2023-05-01T23:00:20.010Z,9.62
2023-05-01T23:05:23.014Z,9.63
2023-05-01T23:10:27.038Z,9.68
2023-05-01T23:15:30.051Z,9.72
2023-05-01T23:20:40.112Z,9.68
2023-05-01T23:25:49.070Z,9.59
2023-05-01T23:31:00.185Z,9.38
2023-05-01T23:36:03.358Z,9.15
2023-05-01T23:41:07.363Z,8.97
2023-05-01T23:46:10.512Z,8.80
2023-05-01T23:51:13.801Z,8.62
2023-05-01T23:56:17.008Z,8.48
